ADDS METAR Data INFO
IDs: Format: Raw Decoded Include TAF

Data at: 1352 UTC 23 Jun 2018

KALX 231335Z AUTO 23008KT 10SM OVC013 25/25 A2997 RMK AO2 LTG DSNT N AND NW T02500248
KALX 231315Z AUTO 23004KT 10SM OVC011 25/25 A2997 RMK AO2 LTG DSNT N AND NW T02460246
KALX 231255Z AUTO 23005KT 10SM OVC011 24/24 A2996 RMK AO2 T02430243
KALX 231235Z AUTO 24004KT 10SM VCTS OVC011 24/24 A2996 RMK AO2 LTG DSNT NE AND NW T02410241
KALX 231215Z AUTO 23004KT 10SM OVC011 24/24 A2996 RMK AO2 LTG DSNT NW T02400240
KALX 231155Z AUTO 22005KT 10SM OVC011 24/24 A2994 RMK AO2 LTG DSNT N AND NW 60001 70022 T02380238 10240 20233
KALX 231135Z AUTO 22003KT 7SM OVC013 24/24 A2994 RMK AO2 LTG DSNT N AND NW T02360236
KALX 231115Z AUTO 22003KT 7SM BKN010 OVC016 24/24 A2993 RMK AO2 LTG DSNT NW T02350235
KALX 231055Z AUTO 23004KT 7SM OVC010 24/24 A2993 RMK AO2 T02360236
KALX 231035Z AUTO 22006KT 10SM VCTS OVC010 24/24 A2992 RMK AO2 LTG DSNT E T02360236
KALX 231015Z AUTO 21003KT 10SM VCTS BKN012 BKN024 OVC030 24/24 A2992 RMK AO2 LTG DSNT NE T02360236
KALX 230955Z AUTO 21005KT 7SM BKN006 SCT014 OVC031 24/24 A2991 RMK AO2 LTG DSNT N T02370237
KALX 230935Z AUTO 23004KT 7SM OVC006 24/24 A2990 RMK AO2 T02380238
KALX 230915Z AUTO 22004KT 7SM OVC006 24/24 A2990 RMK AO2 T02400240
KALX 230855Z AUTO 21004KT 7SM OVC006 24/24 A2989 RMK AO2 60001 T02400240
KALX 230835Z AUTO 25004KT 7SM OVC006 24/24 A2990 RMK AO2 T02400240
KALX 230815Z AUTO 26003KT 7SM OVC006 24/24 A2990 RMK AO2 T02380238
KALX 230755Z AUTO 22003KT 7SM OVC006 24/24 A2989 RMK AO2 T02380238
KALX 230735Z AUTO 00000KT 5SM BR OVC006 24/24 A2989 RMK AO2 LTG DSNT E T02360236
KALX 230715Z AUTO 00000KT 7SM OVC006 24/24 A2988 RMK AO2 T02360236
KALX 230655Z AUTO 00000KT 7SM BKN006 OVC012 24/24 A2988 RMK AO2 LTG DSNT E P0001 T02360236
KALX 230635Z AUTO 23003KT 7SM SCT003 SCT008 OVC012 24/24 A2989 RMK AO2 LTG DSNT E T02350235
KALX 230615Z AUTO 22003KT 7SM VCTS SCT003 BKN012 BKN046 23/23 A2988 RMK AO2 LTG DSNT E T02330233
KALX 230555Z AUTO 00000KT 7SM -RA SCT007 SCT011 BKN055 24/24 A2987 RMK AO2 LTG DSNT E T02360236 10241 20223
KALX 230535Z AUTO 25003KT 10SM SCT010 SCT019 BKN055 24/24 A2988 RMK AO2 LTG DSNT E T02380238
KALX 230515Z AUTO 22005KT 10SM SCT008 BKN018 BKN041 24/24 A2987 RMK AO2 LTG DSNT E T02390239
KALX 230455Z AUTO 30004KT 10SM BKN006 BKN044 BKN050 24/24 A2987 RMK AO2 LTG DSNT E T02350235 402980203
KALX 230435Z AUTO 00000KT 7SM VCTS SCT044 SCT049 SCT055 23/23 A2986 RMK AO2 LTG DSNT E T02300230
KALX 230415Z AUTO 00000KT 7SM SCT041 SCT048 SCT060 23/23 A2986 RMK AO2 LTG DSNT E T02270227
KALX 230355Z AUTO 00000KT 7SM BKN041 BKN048 BKN055 23/23 A2987 RMK AO2 T02250225
KALX 230335Z AUTO 00000KT 5SM BR SCT039 SCT044 23/23 A2987 RMK AO2 T02250225
KALX 230315Z AUTO 00000KT 7SM CLR 23/23 A2987 RMK AO2 T02260226
KALX 230255Z AUTO 00000KT 7SM CLR 23/23 A2988 RMK AO2 T02250225
KALX 230235Z AUTO 00000KT 7SM CLR 23/23 A2988 RMK AO2 T02260226
KALX 230215Z AUTO 00000KT 7SM SCT055 23/23 A2988 RMK AO2 T02260226
KALX 230155Z AUTO 00000KT 10SM CLR 23/23 A2988 RMK AO2 LTG DSNT SE T02270227
KALX 230135Z AUTO 00000KT 10SM CLR 23/23 A2987 RMK AO2 LTG DSNT E AND SE T02270227
KALX 230115Z AUTO 00000KT 10SM CLR 23/23 A2985 RMK AO2 T02270227
KALX 230055Z AUTO 00000KT 10SM CLR 23/23 A2985 RMK AO2 LTG DSNT SE T02330233
KALX 230035Z AUTO 00000KT 10SM CLR 23/23 A2984 RMK AO2 LTG DSNT SE T02330233
KALX 230015Z AUTO 00000KT 10SM CLR 23/23 A2985 RMK AO2 LTG DSNT SE T02320232
KALX 222355Z AUTO 00000KT 10SM CLR 23/23 A2985 RMK AO2 LTG DSNT SE 60021 T02320232 10298 20227
KALX 222335Z AUTO 20003KT 10SM CLR 23/23 A2985 RMK AO2 LTG DSNT SE THRU SW T02300230
KALX 222315Z AUTO 00000KT 10SM VCTS CLR 23/23 A2986 RMK AO2 LTG DSNT E THRU W T02300230
KALX 222255Z AUTO 20006KT 10SM VCTS CLR 23/23 A2986 RMK AO2 LTG DSNT ALQS T02310231
KALX 222235Z AUTO 24003KT 10SM -TSRA SCT002 SCT110 23/23 A2986 RMK AO2 LTG DSNT ALQS T02310231
KALX 222215Z AUTO 21004KT 10SM -VCTSRA SCT002 SCT005 SCT010 23/23 A2987 RMK AO2 LTG DSNT E THRU W T02300230
KALX 222155Z AUTO 22011G16KT 7SM -TSRA SCT005 SCT018 SCT060 23/23 A2988 RMK AO2 LTG DSNT ALQS P0021 T02300229
KALX 222135Z AUTO 26009G28KT 1 3/4SM +TSRA SCT002 BKN005 OVC034 24/24 A2987 RMK AO2 VIS 1 1/4V5 LTG DSNT ALQS P0021 T02400240
KALX 222115Z AUTO 25005KT 10SM -VCTSRA CLR 28/26 A2985 RMK AO2 LTG DSNT SE THRU NW T02810259
KALX 222055Z AUTO 23008KT 10SM SCT028 SCT044 SCT050 29/26 A2984 RMK AO2 LTG DSNT S AND W T02880258
KALX 222035Z AUTO 21009KT 10SM SCT028 SCT036 SCT060 29/26 A2985 RMK AO2 LTG DSNT W THRU NE T02900256
KALX 222015Z AUTO 22009KT 10SM SCT025 SCT031 SCT039 29/26 A2986 RMK AO2 LTG DSNT N AND NE T02890256
KALX 221955Z AUTO 20009KT 10SM SCT028 BKN035 SCT070 29/26 A2987 RMK AO2 T02880257
KALX 221935Z AUTO 20012G18KT 10SM SCT028 BKN033 BKN070 29/26 A2988 RMK AO2 LTG DSNT NW T02900255
KALX 221915Z AUTO 20008KT 10SM SCT028 SCT035 29/26 A2989 RMK AO2 T02900255
KALX 221855Z AUTO 20012G15KT 10SM SCT028 SCT033 SCT040 29/25 A2990 RMK AO2 T02930254
KALX 221835Z AUTO 20011G16KT 10SM SCT028 SCT040 SCT046 29/26 A2991 RMK AO2 LTG DSNT SE T02880255
KALX 221815Z AUTO 20010KT 10SM SCT028 29/26 A2991 RMK AO2 LTG DSNT NW T02910256
KALX 221755Z AUTO 23008KT 10SM SCT026 SCT032 SCT039 29/25 A2991 RMK AO2 T02860254 10292 20213
KALX 221735Z AUTO 21010KT 10SM SCT026 SCT034 BKN040 29/25 A2991 RMK AO2 T02860253
KALX 221715Z AUTO 20007KT 10SM SCT028 BKN034 29/25 A2992 RMK AO2 LTG DSNT NW T02860253
KALX 221655Z AUTO 21009G15KT 10SM SCT030 SCT036 29/25 A2992 RMK AO2 T02870249
KALX 221635Z AUTO 21007KT 180V240 10SM SCT028 29/25 A2992 RMK AO2 T02870252
KALX 221615Z AUTO 21005KT 10SM SCT026 29/25 A2992 RMK AO2 T02860248
KALX 221555Z AUTO 22010KT 10SM SCT024 28/25 A2991 RMK AO2 T02820248
KALX 221535Z AUTO 22008KT 10SM CLR 28/25 A2991 RMK AO2 T02780245
KALX 221515Z AUTO 23007KT 10SM CLR 27/24 A2991 RMK AO2 LTG DSNT S T02710243
KALX 221455Z AUTO 22006KT 10SM CLR 27/24 A2991 RMK AO2 T02690243
KALX 221435Z AUTO 21005KT 10SM CLR 26/24 A2991 RMK AO2 T02630239
KALX 221415Z AUTO 23006KT 10SM CLR 26/23 A2992 RMK AO2 T02580234
KALX 221355Z AUTO 20005KT 10SM CLR 25/23 A2992 RMK AO2 LTG DSNT S T02500232
KALX 221335Z AUTO 22006KT 10SM CLR 24/23 A2992 RMK AO2 LTG DSNT NW T02410227
KALX 221315Z AUTO 20006KT 10SM CLR 24/22 A2992 RMK AO2 T02350223
KALX 221255Z AUTO 21005KT 10SM CLR 23/22 A2992 RMK AO2 T02310221
KALX 221235Z AUTO 19006KT 10SM CLR 23/22 A2992 RMK AO2 T02250222
KALX 221215Z AUTO 19003KT 10SM CLR 22/22 A2993 RMK AO2 T02190219
KALX 221155Z AUTO 00000KT 10SM CLR 21/21 A2992 RMK AO2 60001 70016 T02130213 10225 20203
KALX 221135Z AUTO 00000KT 10SM CLR 21/21 A2992 RMK AO2 T02060206
KALX 221115Z AUTO 00000KT 10SM -RA CLR 20/20 A2992 RMK AO2 T02040204
KALX 221055Z AUTO 00000KT 10SM CLR 20/20 A2992 RMK AO2 T02040204
KALX 221035Z AUTO 00000KT 10SM CLR 21/21 A2991 RMK AO2 T02050205
KALX 221015Z AUTO 22003KT 10SM CLR 21/21 A2993 RMK AO2 T02060206
KALX 220955Z AUTO 00000KT 10SM CLR 21/21 A2991 RMK AO2 LTG DSNT NW P0001 T02070207
KALX 220935Z AUTO 00000KT 10SM CLR 21/21 A2992 RMK AO2 LTG DSNT NW P0001 T02100210
KALX 220915Z AUTO 00000KT 10SM SCT002 SCT007 SCT011 22/22 A2991 RMK AO2 P0001 T02160216
KALX 220855Z AUTO 30005KT 7SM -RA SCT002 BKN009 OVC014 22/22 A2991 RMK AO2 T02220222
KALX 220835Z AUTO 27003KT 10SM OVC009 22/22 A2989 RMK AO2 T02200220
KALX 220815Z AUTO 25003KT 10SM OVC009 22/22 A2989 RMK AO2 T02200220
KALX 220755Z AUTO 00000KT 7SM SCT005 BKN009 22/22 A2988 RMK AO2 LTG DSNT NW T02190219
KALX 220735Z AUTO 00000KT 10SM SCT007 22/22 A2988 RMK AO2 LTG DSNT NW T02200220
KALX 220715Z AUTO 00000KT 10SM CLR 22/22 A2988 RMK AO2 T02210221
KALX 220655Z AUTO 23003KT 10SM CLR 22/22 A2987 RMK AO2 T02220222
KALX 220635Z AUTO 24004KT 10SM CLR 22/22 A2988 RMK AO2 T02220222
KALX 220615Z AUTO 21003KT 10SM CLR 22/22 A2988 RMK AO2 LTG DSNT NW T02230223
KALX 220555Z AUTO 22003KT 10SM CLR 23/23 A2988 RMK AO2 T02250225 10250 20217
KALX 220535Z AUTO 21003KT 10SM CLR 23/23 A2988 RMK AO2 T02250225
KALX 220515Z AUTO 22003KT 10SM CLR 22/22 A2989 RMK AO2 T02230223
KALX 220455Z AUTO 00000KT 10SM CLR 22/22 A2989 RMK AO2 T02180218 403100217
KALX 220435Z AUTO 00000KT 10SM CLR 22/22 A2989 RMK AO2 T02230223
KALX 220415Z AUTO 00000KT 10SM CLR 22/22 A2990 RMK AO2 T02240224
KALX 220355Z AUTO 00000KT 10SM CLR 22/22 A2990 RMK AO2 T02200220
KALX 220335Z AUTO 00000KT 10SM CLR 23/23 A2990 RMK AO2 T02250225
KALX 220315Z AUTO 00000KT 7SM CLR 22/22 A2990 RMK AO2 T02200220
KALX 220255Z AUTO 00000KT 7SM CLR 22/22 A2989 RMK AO2 T02230223
KALX 220235Z AUTO 00000KT 7SM CLR 23/23 A2990 RMK AO2 T02250225
KALX 220215Z AUTO 00000KT 10SM CLR 23/23 A2989 RMK AO2 T02300230
KALX 220155Z AUTO 00000KT 10SM CLR 23/23 A2989 RMK AO2 T02300230